sensor_id;sensor_type;location;lat;lon;timestamp;temperature;humidity
25753;DHT22;13600;50.816;4.416;2023-04-05T00:00:08;7.10;99.90
25753;DHT22;13600;50.816;4.416;2023-04-05T00:02:34;7.00;99.90
25753;DHT22;13600;50.816;4.416;2023-04-05T00:05:02;7.00;99.90
25753;DHT22;13600;50.816;4.416;2023-04-05T00:07:30;6.90;99.90
25753;DHT22;13600;50.816;4.416;2023-04-05T00:09:58;6.90;99.90
25753;DHT22;13600;50.816;4.416;2023-04-05T00:12:24;6.80;99.90
25753;DHT22;13600;50.816;4.416;2023-04-05T00:14:49;6.80;99.90
25753;DHT22;13600;50.816;4.416;2023-04-05T00:17:15;6.90;99.90
25753;DHT22;13600;50.816;4.416;2023-04-05T00:19:42;6.90;99.90
25753;DHT22;13600;50.816;4.416;2023-04-05T00:22:09;6.90;99.90
25753;DHT22;13600;50.816;4.416;2023-04-05T00:24:35;7.00;99.90
25753;DHT22;13600;50.816;4.416;2023-04-05T00:27:06;7.10;99.90
25753;DHT22;13600;50.816;4.416;2023-04-05T00:29:31;7.10;99.90
25753;DHT22;13600;50.816;4.416;2023-04-05T00:31:57;7.00;99.90
25753;DHT22;13600;50.816;4.416;2023-04-05T00:34:22;6.80;99.90
25753;DHT22;13600;50.816;4.416;2023-04-05T00:36:48;6.80;99.90
25753;DHT22;13600;50.816;4.416;2023-04-05T00:39:13;6.90;99.90
25753;DHT22;13600;50.816;4.416;2023-04-05T00:41:39;7.00;99.90
25753;DHT22;13600;50.816;4.416;2023-04-05T00:44:05;7.00;99.90
25753;DHT22;13600;50.816;4.416;2023-04-05T00:46:34;7.00;99.90
25753;DHT22;13600;50.816;4.416;2023-04-05T00:49:02;6.70;99.90
25753;DHT22;13600;50.816;4.416;2023-04-05T00:51:28;6.70;99.90
25753;DHT22;13600;50.816;4.416;2023-04-05T00:53:54;6.60;99.90
25753;DHT22;13600;50.816;4.416;2023-04-05T00:56:20;6.50;99.90
25753;DHT22;13600;50.816;4.416;2023-04-05T00:58:47;6.40;99.90
25753;DHT22;13600;50.816;4.416;2023-04-05T01:01:17;6.10;99.90
25753;DHT22;13600;50.816;4.416;2023-04-05T01:04:06;6.10;99.90
25753;DHT22;13600;50.816;4.416;2023-04-05T01:11:44;5.90;99.90
25753;DHT22;13600;50.816;4.416;2023-04-05T01:14:11;5.90;99.90
25753;DHT22;13600;50.816;4.416;2023-04-05T01:16:37;5.90;99.90
25753;DHT22;13600;50.816;4.416;2023-04-05T01:19:02;5.90;99.90
25753;DHT22;13600;50.816;4.416;2023-04-05T01:34:35;6.20;99.90
25753;DHT22;13600;50.816;4.416;2023-04-05T01:37:07;6.20;99.90
25753;DHT22;13600;50.816;4.416;2023-04-05T01:39:35;6.20;99.90
25753;DHT22;13600;50.816;4.416;2023-04-05T01:42:01;6.20;99.90
25753;DHT22;13600;50.816;4.416;2023-04-05T01:44:27;5.90;99.90
25753;DHT22;13600;50.816;4.416;2023-04-05T01:46:53;5.80;99.90
25753;DHT22;13600;50.816;4.416;2023-04-05T01:49:19;5.60;99.90
25753;DHT22;13600;50.816;4.416;2023-04-05T01:51:44;5.50;99.90
25753;DHT22;13600;50.816;4.416;2023-04-05T01:54:10;5.50;99.90
25753;DHT22;13600;50.816;4.416;2023-04-05T01:56:35;5.50;99.90
25753;DHT22;13600;50.816;4.416;2023-04-05T01:59:01;5.50;99.90
25753;DHT22;13600;50.816;4.416;2023-04-05T02:01:26;5.50;99.90
25753;DHT22;13600;50.816;4.416;2023-04-05T02:03:52;5.40;99.90
25753;DHT22;13600;50.816;4.416;2023-04-05T02:06:18;5.40;99.90
25753;DHT22;13600;50.816;4.416;2023-04-05T02:08:44;5.20;99.90
25753;DHT22;13600;50.816;4.416;2023-04-05T02:11:10;5.40;99.90
25753;DHT22;13600;50.816;4.416;2023-04-05T02:13:35;5.40;99.90
25753;DHT22;13600;50.816;4.416;2023-04-05T02:16:01;5.30;99.90
25753;DHT22;13600;50.816;4.416;2023-04-05T02:18:26;5.20;99.90
25753;DHT22;13600;50.816;4.416;2023-04-05T02:21:02;5.20;99.90
25753;DHT22;13600;50.816;4.416;2023-04-05T02:23:29;5.00;99.90
25753;DHT22;13600;50.816;4.416;2023-04-05T02:25:55;5.00;99.90
25753;DHT22;13600;50.816;4.416;2023-04-05T02:28:20;5.00;99.90
25753;DHT22;13600;50.816;4.416;2023-04-05T02:30:46;5.00;99.90
25753;DHT22;13600;50.816;4.416;2023-04-05T02:33:11;5.00;99.90
25753;DHT22;13600;50.816;4.416;2023-04-05T02:35:37;5.00;99.90
25753;DHT22;13600;50.816;4.416;2023-04-05T02:38:03;5.00;99.90
25753;DHT22;13600;50.816;4.416;2023-04-05T02:40:29;5.20;99.90
25753;DHT22;13600;50.816;4.416;2023-04-05T02:42:54;5.50;99.90
25753;DHT22;13600;50.816;4.416;2023-04-05T02:45:20;5.40;99.90
25753;DHT22;13600;50.816;4.416;2023-04-05T02:47:46;5.40;99.90
25753;DHT22;13600;50.816;4.416;2023-04-05T02:50:11;5.30;99.90
25753;DHT22;13600;50.816;4.416;2023-04-05T02:52:37;5.00;99.90
25753;DHT22;13600;50.816;4.416;2023-04-05T02:55:05;5.00;99.90
25753;DHT22;13600;50.816;4.416;2023-04-05T02:57:31;5.00;99.90
25753;DHT22;13600;50.816;4.416;2023-04-05T02:59:57;5.20;99.90
25753;DHT22;13600;50.816;4.416;2023-04-05T03:02:22;5.30;99.90
25753;DHT22;13600;50.816;4.416;2023-04-05T03:04:50;5.40;99.90
25753;DHT22;13600;50.816;4.416;2023-04-05T03:07:16;5.40;99.90
25753;DHT22;13600;50.816;4.416;2023-04-05T03:09:45;5.50;99.90
25753;DHT22;13600;50.816;4.416;2023-04-05T03:12:11;5.30;99.90
25753;DHT22;13600;50.816;4.416;2023-04-05T03:14:37;5.00;99.90
25753;DHT22;13600;50.816;4.416;2023-04-05T03:17:03;4.80;99.90
25753;DHT22;13600;50.816;4.416;2023-04-05T03:19:29;4.70;99.90
25753;DHT22;13600;50.816;4.416;2023-04-05T03:21:54;4.60;99.90
25753;DHT22;13600;50.816;4.416;2023-04-05T03:24:20;4.60;99.90
25753;DHT22;13600;50.816;4.416;2023-04-05T03:26:46;4.60;99.90
25753;DHT22;13600;50.816;4.416;2023-04-05T03:29:12;4.60;99.90
25753;DHT22;13600;50.816;4.416;2023-04-05T03:31:38;4.60;99.90
25753;DHT22;13600;50.816;4.416;2023-04-05T03:34:03;4.50;99.90
25753;DHT22;13600;50.816;4.416;2023-04-05T03:36:29;4.60;99.90
25753;DHT22;13600;50.816;4.416;2023-04-05T03:39:06;4.50;99.90
25753;DHT22;13600;50.816;4.416;2023-04-05T03:41:32;4.50;99.90
25753;DHT22;13600;50.816;4.416;2023-04-05T03:43:58;4.50;99.90
25753;DHT22;13600;50.816;4.416;2023-04-05T03:46:23;4.60;99.90
25753;DHT22;13600;50.816;4.416;2023-04-05T03:48:49;4.50;99.90
25753;DHT22;13600;50.816;4.416;2023-04-05T03:51:14;4.80;99.90
25753;DHT22;13600;50.816;4.416;2023-04-05T03:53:40;5.00;99.90
25753;DHT22;13600;50.816;4.416;2023-04-05T03:56:06;4.80;99.90
25753;DHT22;13600;50.816;4.416;2023-04-05T03:58:32;4.70;99.90
25753;DHT22;13600;50.816;4.416;2023-04-05T04:00:57;4.60;99.90
25753;DHT22;13600;50.816;4.416;2023-04-05T04:03:23;4.50;99.90
25753;DHT22;13600;50.816;4.416;2023-04-05T04:05:50;4.50;99.90
25753;DHT22;13600;50.816;4.416;2023-04-05T04:08:16;4.40;99.90
25753;DHT22;13600;50.816;4.416;2023-04-05T04:10:41;4.70;99.90
25753;DHT22;13600;50.816;4.416;2023-04-05T04:13:07;4.70;99.90
25753;DHT22;13600;50.816;4.416;2023-04-05T04:15:32;4.60;99.90
25753;DHT22;13600;50.816;4.416;2023-04-05T04:17:58;4.40;99.90
25753;DHT22;13600;50.816;4.416;2023-04-05T04:20:23;4.40;99.90
25753;DHT22;13600;50.816;4.416;2023-04-05T04:22:49;4.40;99.90
25753;DHT22;13600;50.816;4.416;2023-04-05T04:25:14;4.40;99.90
25753;DHT22;13600;50.816;4.416;2023-04-05T04:27:43;4.40;99.90
25753;DHT22;13600;50.816;4.416;2023-04-05T04:30:09;4.30;99.90
25753;DHT22;13600;50.816;4.416;2023-04-05T04:32:36;4.30;99.90
25753;DHT22;13600;50.816;4.416;2023-04-05T04:35:27;4.60;99.90
25753;DHT22;13600;50.816;4.416;2023-04-05T04:37:56;4.70;99.90
25753;DHT22;13600;50.816;4.416;2023-04-05T04:40:29;4.70;99.90
25753;DHT22;13600;50.816;4.416;2023-04-05T04:45:30;4.60;99.90
25753;DHT22;13600;50.816;4.416;2023-04-05T04:47:59;4.50;99.90
25753;DHT22;13600;50.816;4.416;2023-04-05T04:50:25;4.40;99.90
25753;DHT22;13600;50.816;4.416;2023-04-05T04:52:51;4.60;99.90
25753;DHT22;13600;50.816;4.416;2023-04-05T04:55:16;4.50;99.90
25753;DHT22;13600;50.816;4.416;2023-04-05T04:57:42;4.60;99.90
25753;DHT22;13600;50.816;4.416;2023-04-05T05:00:08;4.70;99.90
25753;DHT22;13600;50.816;4.416;2023-04-05T05:02:39;4.60;99.90
25753;DHT22;13600;50.816;4.416;2023-04-05T05:05:06;4.50;99.90
25753;DHT22;13600;50.816;4.416;2023-04-05T05:07:32;4.30;99.90
25753;DHT22;13600;50.816;4.416;2023-04-05T05:09:58;4.30;99.90
25753;DHT22;13600;50.816;4.416;2023-04-05T05:12:23;4.50;99.90
25753;DHT22;13600;50.816;4.416;2023-04-05T05:14:51;4.70;99.90
25753;DHT22;13600;50.816;4.416;2023-04-05T05:17:16;4.90;99.90
25753;DHT22;13600;50.816;4.416;2023-04-05T05:19:42;4.90;99.90
25753;DHT22;13600;50.816;4.416;2023-04-05T05:22:08;4.80;99.90
25753;DHT22;13600;50.816;4.416;2023-04-05T05:24:33;4.50;99.90
25753;DHT22;13600;50.816;4.416;2023-04-05T05:26:59;4.20;99.90
25753;DHT22;13600;50.816;4.416;2023-04-05T05:29:24;4.10;99.90
25753;DHT22;13600;50.816;4.416;2023-04-05T05:31:50;4.00;99.90
25753;DHT22;13600;50.816;4.416;2023-04-05T05:34:16;4.10;99.90
25753;DHT22;13600;50.816;4.416;2023-04-05T05:36:42;4.10;99.90
25753;DHT22;13600;50.816;4.416;2023-04-05T05:39:07;4.20;99.90
25753;DHT22;13600;50.816;4.416;2023-04-05T05:41:33;4.10;99.90
25753;DHT22;13600;50.816;4.416;2023-04-05T05:43:59;4.20;99.90
25753;DHT22;13600;50.816;4.416;2023-04-05T05:46:25;4.30;99.90
25753;DHT22;13600;50.816;4.416;2023-04-05T05:48:50;4.50;99.90
25753;DHT22;13600;50.816;4.416;2023-04-05T05:51:16;4.70;99.90
25753;DHT22;13600;50.816;4.416;2023-04-05T05:53:43;4.90;99.90
25753;DHT22;13600;50.816;4.416;2023-04-05T05:56:09;5.10;99.90
25753;DHT22;13600;50.816;4.416;2023-04-05T05:58:34;5.10;99.90
25753;DHT22;13600;50.816;4.416;2023-04-05T06:01:01;5.10;99.90
25753;DHT22;13600;50.816;4.416;2023-04-05T06:03:28;5.00;99.90
25753;DHT22;13600;50.816;4.416;2023-04-05T06:05:58;5.10;99.90
25753;DHT22;13600;50.816;4.416;2023-04-05T06:08:24;5.00;99.90
25753;DHT22;13600;50.816;4.416;2023-04-05T06:10:51;5.00;99.90
25753;DHT22;13600;50.816;4.416;2023-04-05T06:13:17;4.90;99.90
25753;DHT22;13600;50.816;4.416;2023-04-05T06:15:43;4.90;99.90
25753;DHT22;13600;50.816;4.416;2023-04-05T06:18:09;4.90;99.90
25753;DHT22;13600;50.816;4.416;2023-04-05T06:20:34;5.00;99.90
25753;DHT22;13600;50.816;4.416;2023-04-05T06:23:04;5.10;99.90
25753;DHT22;13600;50.816;4.416;2023-04-05T06:25:30;5.20;99.90
25753;DHT22;13600;50.816;4.416;2023-04-05T06:27:56;5.30;99.90
25753;DHT22;13600;50.816;4.416;2023-04-05T06:30:21;5.50;99.90
25753;DHT22;13600;50.816;4.416;2023-04-05T06:32:47;5.70;99.90
25753;DHT22;13600;50.816;4.416;2023-04-05T06:35:22;5.70;99.90
25753;DHT22;13600;50.816;4.416;2023-04-05T06:37:49;5.80;99.90
25753;DHT22;13600;50.816;4.416;2023-04-05T06:40:15;6.00;99.90
25753;DHT22;13600;50.816;4.416;2023-04-05T06:42:41;5.90;99.90
25753;DHT22;13600;50.816;4.416;2023-04-05T06:45:07;6.00;99.90
25753;DHT22;13600;50.816;4.416;2023-04-05T06:47:33;6.10;99.90
25753;DHT22;13600;50.816;4.416;2023-04-05T06:49:59;6.20;99.90
25753;DHT22;13600;50.816;4.416;2023-04-05T06:52:26;6.50;99.90
25753;DHT22;13600;50.816;4.416;2023-04-05T06:54:52;6.80;99.90
25753;DHT22;13600;50.816;4.416;2023-04-05T06:57:18;7.60;99.90
25753;DHT22;13600;50.816;4.416;2023-04-05T06:59:43;9.50;99.90
25753;DHT22;13600;50.816;4.416;2023-04-05T07:02:09;11.30;99.90
25753;DHT22;13600;50.816;4.416;2023-04-05T07:04:35;13.10;99.90
25753;DHT22;13600;50.816;4.416;2023-04-05T07:07:04;13.90;99.90
25753;DHT22;13600;50.816;4.416;2023-04-05T07:09:34;14.90;97.00
25753;DHT22;13600;50.816;4.416;2023-04-05T07:12:01;16.00;93.50
25753;DHT22;13600;50.816;4.416;2023-04-05T07:14:31;16.90;90.30
25753;DHT22;13600;50.816;4.416;2023-04-05T07:16:57;17.50;86.50
25753;DHT22;13600;50.816;4.416;2023-04-05T07:19:22;18.00;83.40
25753;DHT22;13600;50.816;4.416;2023-04-05T07:21:48;18.20;80.40
25753;DHT22;13600;50.816;4.416;2023-04-05T07:24:14;19.20;77.40
25753;DHT22;13600;50.816;4.416;2023-04-05T07:26:39;19.70;73.70
25753;DHT22;13600;50.816;4.416;2023-04-05T07:29:05;20.00;72.20
25753;DHT22;13600;50.816;4.416;2023-04-05T07:31:35;20.10;68.80
25753;DHT22;13600;50.816;4.416;2023-04-05T07:34:02;20.30;67.90
25753;DHT22;13600;50.816;4.416;2023-04-05T07:36:27;20.30;67.00
25753;DHT22;13600;50.816;4.416;2023-04-05T07:38:55;19.80;64.40
25753;DHT22;13600;50.816;4.416;2023-04-05T07:41:21;19.30;64.80
25753;DHT22;13600;50.816;4.416;2023-04-05T07:43:48;18.40;66.10
25753;DHT22;13600;50.816;4.416;2023-04-05T07:46:13;17.50;66.60
25753;DHT22;13600;50.816;4.416;2023-04-05T07:48:39;16.50;68.60
25753;DHT22;13600;50.816;4.416;2023-04-05T07:51:05;15.60;69.90
25753;DHT22;13600;50.816;4.416;2023-04-05T07:53:31;15.00;71.70
25753;DHT22;13600;50.816;4.416;2023-04-05T07:55:57;14.30;73.50
25753;DHT22;13600;50.816;4.416;2023-04-05T07:58:24;13.10;76.90
25753;DHT22;13600;50.816;4.416;2023-04-05T08:00:49;13.10;78.00
25753;DHT22;13600;50.816;4.416;2023-04-05T08:03:17;13.60;77.70
25753;DHT22;13600;50.816;4.416;2023-04-05T08:05:43;14.10;75.30
25753;DHT22;13600;50.816;4.416;2023-04-05T08:08:08;14.30;74.10
25753;DHT22;13600;50.816;4.416;2023-04-05T08:10:38;14.10;72.30
25753;DHT22;13600;50.816;4.416;2023-04-05T08:13:04;13.80;72.20
25753;DHT22;13600;50.816;4.416;2023-04-05T08:15:34;13.30;73.30
25753;DHT22;13600;50.816;4.416;2023-04-05T08:18:00;13.20;73.90
25753;DHT22;13600;50.816;4.416;2023-04-05T08:20:25;12.90;73.90
25753;DHT22;13600;50.816;4.416;2023-04-05T08:22:51;12.80;74.50
25753;DHT22;13600;50.816;4.416;2023-04-05T08:25:17;12.90;73.90
25753;DHT22;13600;50.816;4.416;2023-04-05T08:27:44;13.00;72.60
25753;DHT22;13600;50.816;4.416;2023-04-05T08:30:10;13.10;71.30
25753;DHT22;13600;50.816;4.416;2023-04-05T08:32:35;12.80;72.30
25753;DHT22;13600;50.816;4.416;2023-04-05T08:35:01;12.90;74.80
25753;DHT22;13600;50.816;4.416;2023-04-05T08:37:27;12.90;72.70
25753;DHT22;13600;50.816;4.416;2023-04-05T08:39:53;13.00;73.10
25753;DHT22;13600;50.816;4.416;2023-04-05T08:42:22;13.20;71.90
25753;DHT22;13600;50.816;4.416;2023-04-05T08:44:50;13.30;72.20
25753;DHT22;13600;50.816;4.416;2023-04-05T08:47:19;13.40;69.80
25753;DHT22;13600;50.816;4.416;2023-04-05T08:49:47;13.40;70.10
25753;DHT22;13600;50.816;4.416;2023-04-05T08:52:14;13.50;69.70
25753;DHT22;13600;50.816;4.416;2023-04-05T08:54:40;13.60;70.20
25753;DHT22;13600;50.816;4.416;2023-04-05T08:57:08;13.80;70.20
25753;DHT22;13600;50.816;4.416;2023-04-05T08:59:36;14.00;70.20
25753;DHT22;13600;50.816;4.416;2023-04-05T09:02:07;14.50;70.30
25753;DHT22;13600;50.816;4.416;2023-04-05T09:04:36;15.80;66.30
25753;DHT22;13600;50.816;4.416;2023-04-05T09:07:05;18.90;60.50
25753;DHT22;13600;50.816;4.416;2023-04-05T09:09:34;21.80;55.30
25753;DHT22;13600;50.816;4.416;2023-04-05T09:12:02;24.20;52.50
25753;DHT22;13600;50.816;4.416;2023-04-05T09:14:29;24.90;48.80
25753;DHT22;13600;50.816;4.416;2023-04-05T09:16:54;25.50;46.90
25753;DHT22;13600;50.816;4.416;2023-04-05T09:19:20;26.00;45.80
25753;DHT22;13600;50.816;4.416;2023-04-05T09:21:58;26.40;45.30
25753;DHT22;13600;50.816;4.416;2023-04-05T09:24:33;26.40;44.20
25753;DHT22;13600;50.816;4.416;2023-04-05T09:27:09;27.10;43.30
25753;DHT22;13600;50.816;4.416;2023-04-05T09:29:35;27.50;42.20
25753;DHT22;13600;50.816;4.416;2023-04-05T09:32:01;27.30;41.50
25753;DHT22;13600;50.816;4.416;2023-04-05T09:34:31;27.80;41.80
25753;DHT22;13600;50.816;4.416;2023-04-05T09:36:59;28.40;40.40
25753;DHT22;13600;50.816;4.416;2023-04-05T09:39:29;29.40;39.70
25753;DHT22;13600;50.816;4.416;2023-04-05T09:42:03;29.40;38.60
25753;DHT22;13600;50.816;4.416;2023-04-05T09:44:46;29.90;38.40
25753;DHT22;13600;50.816;4.416;2023-04-05T09:47:17;30.70;37.50
25753;DHT22;13600;50.816;4.416;2023-04-05T09:49:42;30.60;37.00
25753;DHT22;13600;50.816;4.416;2023-04-05T09:52:25;31.40;37.00
25753;DHT22;13600;50.816;4.416;2023-04-05T09:54:53;32.00;35.80
25753;DHT22;13600;50.816;4.416;2023-04-05T09:57:25;31.80;35.30
25753;DHT22;13600;50.816;4.416;2023-04-05T09:59:51;32.80;34.90
25753;DHT22;13600;50.816;4.416;2023-04-05T10:02:17;32.20;34.20
25753;DHT22;13600;50.816;4.416;2023-04-05T10:04:44;31.00;34.60
25753;DHT22;13600;50.816;4.416;2023-04-05T10:07:12;31.10;35.50
25753;DHT22;13600;50.816;4.416;2023-04-05T10:09:38;31.40;35.20
25753;DHT22;13600;50.816;4.416;2023-04-05T10:12:05;30.60;34.40
25753;DHT22;13600;50.816;4.416;2023-04-05T10:14:31;30.90;35.30
25753;DHT22;13600;50.816;4.416;2023-04-05T10:19:30;32.00;34.10
25753;DHT22;13600;50.816;4.416;2023-04-05T10:21:58;32.20;33.60
25753;DHT22;13600;50.816;4.416;2023-04-05T10:27:04;33.70;33.10
25753;DHT22;13600;50.816;4.416;2023-04-05T10:29:37;33.80;32.60
25753;DHT22;13600;50.816;4.416;2023-04-05T10:32:10;33.80;32.10
25753;DHT22;13600;50.816;4.416;2023-04-05T10:34:41;33.90;32.00
25753;DHT22;13600;50.816;4.416;2023-04-05T10:37:14;33.60;32.50
25753;DHT22;13600;50.816;4.416;2023-04-05T10:39:45;34.20;31.90
25753;DHT22;13600;50.816;4.416;2023-04-05T10:42:53;34.40;31.50
25753;DHT22;13600;50.816;4.416;2023-04-05T10:45:03;33.70;31.60
25753;DHT22;13600;50.816;4.416;2023-04-05T10:47:33;33.70;32.30
25753;DHT22;13600;50.816;4.416;2023-04-05T10:50:02;33.60;31.60
25753;DHT22;13600;50.816;4.416;2023-04-05T10:52:29;33.70;32.00
25753;DHT22;13600;50.816;4.416;2023-04-05T10:54:56;34.10;32.20
25753;DHT22;13600;50.816;4.416;2023-04-05T10:57:25;34.50;31.00
25753;DHT22;13600;50.816;4.416;2023-04-05T10:59:51;34.60;31.70
25753;DHT22;13600;50.816;4.416;2023-04-05T11:02:17;34.00;31.70
25753;DHT22;13600;50.816;4.416;2023-04-05T11:04:43;33.00;31.70
25753;DHT22;13600;50.816;4.416;2023-04-05T11:07:15;31.90;32.40
25753;DHT22;13600;50.816;4.416;2023-04-05T11:09:52;31.60;32.70
25753;DHT22;13600;50.816;4.416;2023-04-05T11:12:19;31.20;33.00
25753;DHT22;13600;50.816;4.416;2023-04-05T11:18:19;31.40;33.10
25753;DHT22;13600;50.816;4.416;2023-04-05T11:23:11;32.90;32.70
25753;DHT22;13600;50.816;4.416;2023-04-05T11:25:38;32.60;31.60
25753;DHT22;13600;50.816;4.416;2023-04-05T11:28:06;32.40;32.30
25753;DHT22;13600;50.816;4.416;2023-04-05T11:30:45;32.70;31.00
25753;DHT22;13600;50.816;4.416;2023-04-05T11:33:11;33.20;30.80
25753;DHT22;13600;50.816;4.416;2023-04-05T11:36:00;34.10;30.40
25753;DHT22;13600;50.816;4.416;2023-04-05T11:38:27;33.90;30.60
25753;DHT22;13600;50.816;4.416;2023-04-05T11:41:01;34.10;31.20
25753;DHT22;13600;50.816;4.416;2023-04-05T11:43:29;34.10;30.70
25753;DHT22;13600;50.816;4.416;2023-04-05T11:45:54;33.20;30.80
25753;DHT22;13600;50.816;4.416;2023-04-05T11:48:20;33.00;31.00
25753;DHT22;13600;50.816;4.416;2023-04-05T11:50:46;33.10;31.70
25753;DHT22;13600;50.816;4.416;2023-04-05T11:53:13;33.80;31.00
25753;DHT22;13600;50.816;4.416;2023-04-05T11:55:39;34.40;30.80
25753;DHT22;13600;50.816;4.416;2023-04-05T11:58:15;34.30;30.10
25753;DHT22;13600;50.816;4.416;2023-04-05T12:00:42;34.40;29.70
25753;DHT22;13600;50.816;4.416;2023-04-05T12:03:11;34.40;29.60
25753;DHT22;13600;50.816;4.416;2023-04-05T12:05:44;34.20;30.30
25753;DHT22;13600;50.816;4.416;2023-04-05T12:08:09;34.90;30.30
25753;DHT22;13600;50.816;4.416;2023-04-05T12:10:35;35.20;30.10
25753;DHT22;13600;50.816;4.416;2023-04-05T12:13:00;35.70;30.30
25753;DHT22;13600;50.816;4.416;2023-04-05T12:15:26;35.50;30.50
25753;DHT22;13600;50.816;4.416;2023-04-05T12:17:53;35.60;29.70
25753;DHT22;13600;50.816;4.416;2023-04-05T12:20:21;35.40;30.00
25753;DHT22;13600;50.816;4.416;2023-04-05T12:22:48;34.60;30.50
25753;DHT22;13600;50.816;4.416;2023-04-05T12:25:15;34.70;30.10
25753;DHT22;13600;50.816;4.416;2023-04-05T12:27:41;35.00;30.60
25753;DHT22;13600;50.816;4.416;2023-04-05T12:30:15;34.30;30.00
25753;DHT22;13600;50.816;4.416;2023-04-05T12:32:41;34.30;30.20
25753;DHT22;13600;50.816;4.416;2023-04-05T12:35:11;33.90;30.20
25753;DHT22;13600;50.816;4.416;2023-04-05T12:37:37;32.90;30.40
25753;DHT22;13600;50.816;4.416;2023-04-05T12:40:03;32.80;31.10
25753;DHT22;13600;50.816;4.416;2023-04-05T12:42:33;32.70;30.50
25753;DHT22;13600;50.816;4.416;2023-04-05T12:45:04;32.40;31.70
25753;DHT22;13600;50.816;4.416;2023-04-05T12:47:31;31.90;31.30
25753;DHT22;13600;50.816;4.416;2023-04-05T12:49:57;30.80;32.40
25753;DHT22;13600;50.816;4.416;2023-04-05T12:52:25;31.40;32.10
25753;DHT22;13600;50.816;4.416;2023-04-05T12:54:54;32.10;31.30
25753;DHT22;13600;50.816;4.416;2023-04-05T12:57:30;32.30;31.40
25753;DHT22;13600;50.816;4.416;2023-04-05T12:59:55;31.60;30.90
25753;DHT22;13600;50.816;4.416;2023-04-05T13:02:21;30.60;32.00
25753;DHT22;13600;50.816;4.416;2023-04-05T13:04:46;29.70;32.00
25753;DHT22;13600;50.816;4.416;2023-04-05T13:07:12;29.50;33.40
25753;DHT22;13600;50.816;4.416;2023-04-05T13:09:38;29.40;33.00
25753;DHT22;13600;50.816;4.416;2023-04-05T13:12:03;29.20;33.10
25753;DHT22;13600;50.816;4.416;2023-04-05T13:14:29;29.00;33.70
25753;DHT22;13600;50.816;4.416;2023-04-05T13:16:54;28.70;33.90
25753;DHT22;13600;50.816;4.416;2023-04-05T13:19:20;28.20;33.20
25753;DHT22;13600;50.816;4.416;2023-04-05T13:21:46;27.90;34.00
25753;DHT22;13600;50.816;4.416;2023-04-05T13:24:11;27.50;34.70
25753;DHT22;13600;50.816;4.416;2023-04-05T13:26:37;27.80;34.30
25753;DHT22;13600;50.816;4.416;2023-04-05T13:29:02;28.40;34.10
25753;DHT22;13600;50.816;4.416;2023-04-05T13:31:28;29.70;33.40
25753;DHT22;13600;50.816;4.416;2023-04-05T13:33:54;30.20;32.50
25753;DHT22;13600;50.816;4.416;2023-04-05T13:36:19;29.10;33.50
25753;DHT22;13600;50.816;4.416;2023-04-05T13:38:45;28.80;33.40
25753;DHT22;13600;50.816;4.416;2023-04-05T13:41:10;28.40;33.30
25753;DHT22;13600;50.816;4.416;2023-04-05T13:43:36;27.60;33.90
25753;DHT22;13600;50.816;4.416;2023-04-05T13:46:02;27.30;35.20
25753;DHT22;13600;50.816;4.416;2023-04-05T13:48:28;28.10;35.10
25753;DHT22;13600;50.816;4.416;2023-04-05T13:50:54;28.90;34.20
25753;DHT22;13600;50.816;4.416;2023-04-05T13:53:19;29.10;33.40
25753;DHT22;13600;50.816;4.416;2023-04-05T13:55:45;29.20;33.70
25753;DHT22;13600;50.816;4.416;2023-04-05T13:58:10;28.90;33.70
25753;DHT22;13600;50.816;4.416;2023-04-05T14:00:38;28.50;34.00
25753;DHT22;13600;50.816;4.416;2023-04-05T14:03:04;28.90;33.70
25753;DHT22;13600;50.816;4.416;2023-04-05T14:05:30;28.80;32.90
25753;DHT22;13600;50.816;4.416;2023-04-05T14:07:55;28.30;34.90
25753;DHT22;13600;50.816;4.416;2023-04-05T14:10:21;28.00;34.60
25753;DHT22;13600;50.816;4.416;2023-04-05T14:12:48;28.30;34.30
25753;DHT22;13600;50.816;4.416;2023-04-05T14:15:13;28.80;34.20
25753;DHT22;13600;50.816;4.416;2023-04-05T14:17:39;29.30;34.50
25753;DHT22;13600;50.816;4.416;2023-04-05T14:20:05;29.70;34.00
25753;DHT22;13600;50.816;4.416;2023-04-05T14:22:31;29.60;33.90
25753;DHT22;13600;50.816;4.416;2023-04-05T14:24:56;29.70;33.90
25753;DHT22;13600;50.816;4.416;2023-04-05T14:27:22;29.40;33.70
25753;DHT22;13600;50.816;4.416;2023-04-05T14:29:54;27.50;33.00
25753;DHT22;13600;50.816;4.416;2023-04-05T14:32:23;26.60;35.20
25753;DHT22;13600;50.816;4.416;2023-04-05T14:34:49;26.60;35.30
25753;DHT22;13600;50.816;4.416;2023-04-05T14:37:14;26.90;35.10
25753;DHT22;13600;50.816;4.416;2023-04-05T14:39:42;27.50;34.70
25753;DHT22;13600;50.816;4.416;2023-04-05T14:42:08;27.90;33.90
25753;DHT22;13600;50.816;4.416;2023-04-05T14:44:33;27.80;34.20
25753;DHT22;13600;50.816;4.416;2023-04-05T14:46:59;27.30;34.00
25753;DHT22;13600;50.816;4.416;2023-04-05T14:49:25;27.80;34.40
25753;DHT22;13600;50.816;4.416;2023-04-05T14:51:51;27.60;34.40
25753;DHT22;13600;50.816;4.416;2023-04-05T14:54:16;26.90;34.10
25753;DHT22;13600;50.816;4.416;2023-04-05T14:56:42;26.30;35.20
25753;DHT22;13600;50.816;4.416;2023-04-05T14:59:08;26.00;36.10
25753;DHT22;13600;50.816;4.416;2023-04-05T15:01:34;25.70;35.50
25753;DHT22;13600;50.816;4.416;2023-04-05T15:03:59;24.90;36.50
25753;DHT22;13600;50.816;4.416;2023-04-05T15:06:25;24.80;37.20
25753;DHT22;13600;50.816;4.416;2023-04-05T15:08:51;24.80;37.10
25753;DHT22;13600;50.816;4.416;2023-04-05T15:11:16;24.20;36.90
25753;DHT22;13600;50.816;4.416;2023-04-05T15:13:42;23.90;38.40
25753;DHT22;13600;50.816;4.416;2023-04-05T15:16:07;23.90;38.80
25753;DHT22;13600;50.816;4.416;2023-04-05T15:18:33;23.70;38.90
25753;DHT22;13600;50.816;4.416;2023-04-05T15:20:59;23.50;39.30
25753;DHT22;13600;50.816;4.416;2023-04-05T15:23:24;23.90;38.40
25753;DHT22;13600;50.816;4.416;2023-04-05T15:25:50;23.80;38.50
25753;DHT22;13600;50.816;4.416;2023-04-05T15:28:16;23.60;38.70
25753;DHT22;13600;50.816;4.416;2023-04-05T15:30:41;23.40;38.70
25753;DHT22;13600;50.816;4.416;2023-04-05T15:33:09;23.30;39.00
25753;DHT22;13600;50.816;4.416;2023-04-05T15:35:34;23.60;38.80
25753;DHT22;13600;50.816;4.416;2023-04-05T15:38:01;24.00;38.60
25753;DHT22;13600;50.816;4.416;2023-04-05T15:40:26;24.10;38.20
25753;DHT22;13600;50.816;4.416;2023-04-05T15:42:53;24.00;38.30
25753;DHT22;13600;50.816;4.416;2023-04-05T15:45:19;24.20;38.20
25753;DHT22;13600;50.816;4.416;2023-04-05T15:47:45;24.20;38.60
25753;DHT22;13600;50.816;4.416;2023-04-05T15:50:10;24.20;37.60
25753;DHT22;13600;50.816;4.416;2023-04-05T15:52:36;23.60;38.70
25753;DHT22;13600;50.816;4.416;2023-04-05T15:55:02;23.10;38.80
25753;DHT22;13600;50.816;4.416;2023-04-05T15:57:28;22.60;39.90
25753;DHT22;13600;50.816;4.416;2023-04-05T15:59:53;22.40;39.90
25753;DHT22;13600;50.816;4.416;2023-04-05T16:02:19;22.20;40.30
25753;DHT22;13600;50.816;4.416;2023-04-05T16:04:44;22.20;41.00
25753;DHT22;13600;50.816;4.416;2023-04-05T16:07:10;22.10;41.00